Time;durP1;ratioP1;P1;durP2;ratioP2;P2;SDS_P1;SDS_P2;PMS_P1;PMS_P2;Temp;Humidity;BMP_temperature;BMP_pressure;BME280_temperature;BME280_humidity;BME280_pressure;Samples;Min_cycle;Max_cycle;Signal;HPM_P1;HPM_P2
2021/08/05 00:00:49;;;;;;;;;;;;;;;;;;5061306;28;1287;-48
2021/08/05 00:03:14;;;;;;;;;;;;;;;;;;5059775;28;1969;-47
2021/08/05 00:05:40;;;;;;;;;;;;;;;;;;5060821;28;1657;-49
2021/08/05 00:08:05;;;;;;;;;;;;;;;;;;5059298;28;1196;-48
2021/08/05 00:10:30;;;;;;;;;;;;;;;;;;5058840;28;1308;-47
2021/08/05 00:12:55;;;;;;;;;;;;;;;;;;5060736;28;1835;-47
2021/08/05 00:15:21;;;;;;;;;;;;;;;;;;5059553;28;1348;-48
2021/08/05 00:17:46;;;;;;;;;;;;;;;;;;5059200;28;1010;-48
2021/08/05 00:20:11;;;;;;;;;;;;;;;;;;5058914;28;1491;-48
2021/08/05 00:22:36;;;;;;;;;;;;;;;;;;5059666;28;1983;-48
2021/08/05 00:25:02;;;;;;;;;;;;;;;;;;5059933;28;1196;-49
2021/08/05 00:27:27;;;;;;;;;;;;;;;;;;5060236;28;1710;-50
2021/08/05 00:29:52;;;;;;;;;;;;;;;;;;5057534;28;1606;-48
2021/08/05 00:32:17;;;;;;;;;;;;;;;;;;5058306;28;1240;-48
2021/08/05 00:34:43;;;;;;;;;;;;;;;;;;5058703;28;1176;-47
2021/08/05 00:37:08;;;;;;;;;;;;;;;;;;5060058;28;1880;-47
2021/08/05 00:39:33;;;;;;;;;;;;;;;;;;5057681;28;1034;-47
2021/08/05 00:41:58;;;;;;;;;;;;;;;;;;5057494;28;2057;-48
2021/08/05 00:44:23;;;;;;;;;;;;;;;;;;5056326;28;1535;-48
2021/08/05 00:46:48;;;;;;;;;;;;;;;;;;5057914;28;1085;-48
2021/08/05 00:49:14;;;;;;;;;;;;;;;;;;5057393;28;1515;-48
2021/08/05 00:51:39;;;;;;;;;;;;;;;;;;5059939;28;1221;-48
2021/08/05 00:54:04;;;;;;;;;;;;;;;;;;5057658;28;1109;-48
2021/08/05 00:56:29;;;;;;;;;;;;;;;;;;5040977;28;1608;-48
2021/08/05 00:58:55;;;;;;;;;;;;;;;;;;5055540;28;1414;-48
2021/08/05 01:01:20;;;;;;;;;;;;;;;;;;5057065;28;1313;-47
2021/08/05 01:03:46;;;;;;;;;;;;;;;;;;5036091;28;1911;-48
2021/08/05 01:06:32;;;;;;;;;;;;;;;;;;5039331;28;1635;-48
2021/08/05 01:09:01;;;;;;;;;;;;;;;;;;5056805;28;1370;-48
2021/08/05 01:11:27;;;;;;;;;;;;;;;;;;5069067;23;1606;-48
2021/08/05 01:13:56;;;;;;;;;;;;;;;;;;5056711;28;1552;-49
2021/08/05 01:16:27;;;;;;;;;;;;;;;;;;5080099;28;1109;-48
2021/08/05 01:18:53;;;;;;;;;;;;;;;;;;5076535;28;1017;-47
2021/08/05 01:21:20;;;;;;;;;;;;;;;;;;5056591;28;1669;-48
2021/08/05 01:23:55;;;;;;;;;;;;;;;;;;5058547;28;1979;-48
2021/08/05 01:26:27;;;;;;;;;;;;;;;;;;5043082;28;1615;-48
2021/08/05 01:28:52;;;;;;;;;;;;;;;;;;5057514;28;932;-48
2021/08/05 01:31:17;;;;;;;;;;;;;;;;;;5040283;28;1543;-48
2021/08/05 01:33:43;;;;;;;;;;;;;;;;;;5039457;28;1768;-48
2021/08/05 01:36:08;;;;;;;;;;;;;;;;;;5040887;28;1152;-48
2021/08/05 01:38:34;;;;;;;;;;;;;;;;;;5056787;28;1618;-47
2021/08/05 01:40:59;;;;;;;;;;;;;;;;;;5057677;28;1641;-49
2021/08/05 01:43:24;;;;;;;;;;;;;;;;;;5041647;28;1906;-48
2021/08/05 01:45:49;;;;;;;;;;;;;;;;;;4973897;28;1192;-48
2021/08/05 01:48:15;;;;;;;;;;;;;;;;;;5034947;28;1503;-48
2021/08/05 01:50:43;;;;;;;;;;;;;;;;;;5040696;28;1236;-48
2021/08/05 01:53:08;;;;;;;;;;;;;;;;;;5040486;28;1134;-48
2021/08/05 01:55:33;;;;;;;;;;;;;;;;;;5057343;28;1164;-48
2021/08/05 01:57:58;;;;;;;;;;;;;;;;;;5057078;28;1603;-48
2021/08/05 02:00:23;;;;;;;;;;;;;;;;;;5059021;28;1129;-48
2021/08/05 02:02:53;;;;;;;;;;;;;;;;;;5057670;28;1963;-48
2021/08/05 02:05:20;;;;;;;;;;;;;;;;;;5057124;28;1649;-48
2021/08/05 02:07:49;;;;;;;;;;;;;;;;;;5041533;28;1560;-48
2021/08/05 02:10:18;;;;;;;;;;;;;;;;;;5056774;28;1200;-49
2021/08/05 02:12:43;;;;;;;;;;;;;;;;;;5056342;28;1563;-48
2021/08/05 02:15:08;;;;;;;;;;;;;;;;;;5042697;28;1221;-48
2021/08/05 02:17:35;;;;;;;;;;;;;;;;;;5057768;28;1101;-48
2021/08/05 02:20:01;;;;;;;;;;;;;;;;;;5039574;28;1633;-48
2021/08/05 02:22:26;;;;;;;;;;;;;;;;;;5059451;28;1906;-48
2021/08/05 02:24:51;;;;;;;;;;;;;;;;;;5039512;28;1033;-48
2021/08/05 02:27:16;;;;;;;;;;;;;;;;;;5037662;28;1631;-49
2021/08/05 02:29:42;;;;;;;;;;;;;;;;;;5057239;28;1153;-49
2021/08/05 02:32:08;;;;;;;;;;;;;;;;;;5041033;28;1308;-48
2021/08/05 02:34:33;;;;;;;;;;;;;;;;;;5061550;28;1353;-49
2021/08/05 02:36:59;;;;;;;;;;;;;;;;;;5044746;28;1639;-48
2021/08/05 02:39:24;;;;;;;;;;;;;;;;;;5062196;28;1655;-48
2021/08/05 02:41:49;;;;;;;;;;;;;;;;;;5041657;28;2101;-48
2021/08/05 02:44:14;;;;;;;;;;;;;;;;;;5043369;28;1902;-48
2021/08/05 02:46:40;;;;;;;;;;;;;;;;;;5060206;28;1550;-48
2021/08/05 02:49:05;;;;;;;;;;;;;;;;;;5060111;28;1142;-48
2021/08/05 02:51:30;;;;;;;;;;;;;;;;;;5041478;28;1565;-48
2021/08/05 02:53:55;;;;;;;;;;;;;;;;;;5042656;28;1511;-48
2021/08/05 02:56:21;;;;;;;;;;;;;;;;;;5061456;28;1514;-48
2021/08/05 02:58:46;;;;;;;;;;;;;;;;;;5060260;28;1291;-48
2021/08/05 03:01:11;;;;;;;;;;;;;;;;;;5061887;28;1181;-49
2021/08/05 03:03:36;;;;;;;;;;;;;;;;;;5060544;28;1930;-47
2021/08/05 03:06:02;;;;;;;;;;;;;;;;;;5060620;28;1519;-48
2021/08/05 03:08:27;;;;;;;;;;;;;;;;;;5061120;28;1223;-49
2021/08/05 03:10:52;;;;;;;;;;;;;;;;;;5058948;28;1567;-48
2021/08/05 03:13:17;;;;;;;;;;;;;;;;;;5062480;28;1013;-48
2021/08/05 03:15:42;;;;;;;;;;;;;;;;;;5057844;28;1690;-49
2021/08/05 03:18:07;;;;;;;;;;;;;;;;;;5058552;28;1104;-48
2021/08/05 03:20:33;;;;;;;;;;;;;;;;;;5061181;28;1077;-48
2021/08/05 03:22:59;;;;;;;;;;;;;;;;;;5059436;28;2122;-49
2021/08/05 03:25:24;;;;;;;;;;;;;;;;;;5061047;28;1081;-48
2021/08/05 03:27:50;;;;;;;;;;;;;;;;;;5059673;28;1532;-48
2021/08/05 03:30:15;;;;;;;;;;;;;;;;;;5060348;28;1128;-49
2021/08/05 03:32:40;;;;;;;;;;;;;;;;;;5059081;28;1276;-48
2021/08/05 03:35:05;;;;;;;;;;;;;;;;;;5060286;28;1669;-48
2021/08/05 03:37:30;;;;;;;;;;;;;;;;;;5060085;28;1471;-48
2021/08/05 03:39:56;;;;;;;;;;;;;;;;;;5060157;28;1635;-48
2021/08/05 03:42:21;;;;;;;;;;;;;;;;;;5058729;28;1902;-48
2021/08/05 03:44:46;;;;;;;;;;;;;;;;;;5061530;28;1168;-48
2021/08/05 03:47:11;;;;;;;;;;;;;;;;;;5060025;28;1041;-48
2021/08/05 03:49:36;;;;;;;;;;;;;;;;;;5058964;28;1720;-48
2021/08/05 03:52:02;;;;;;;;;;;;;;;;;;5060173;28;1562;-48
2021/08/05 03:54:27;;;;;;;;;;;;;;;;;;5059861;28;1247;-49
2021/08/05 03:56:52;;;;;;;;;;;;;;;;;;5057969;28;1510;-48
2021/08/05 03:59:17;;;;;;;;;;;;;;;;;;5055609;28;1408;-48
2021/08/05 04:01:42;;;;;;;;;;;;;;;;;;5060325;28;1324;-48
2021/08/05 04:04:07;;;;;;;;;;;;;;;;;;5058445;28;1965;-48
2021/08/05 04:06:33;;;;;;;;;;;;;;;;;;5060472;28;1097;-48
2021/08/05 04:08:58;;;;;;;;;;;;;;;;;;5058679;28;1403;-48
2021/08/05 04:11:23;;;;;;;;;;;;;;;;;;5059918;28;1729;-48
2021/08/05 04:13:48;;;;;;;;;;;;;;;;;;5058818;28;1286;-48
2021/08/05 04:16:13;;;;;;;;;;;;;;;;;;5060586;28;1149;-48
2021/08/05 04:18:39;;;;;;;;;;;;;;;;;;5058377;28;1231;-48
2021/08/05 04:21:04;;;;;;;;;;;;;;;;;;5059653;28;1582;-48
2021/08/05 04:23:29;;;;;;;;;;;;;;;;;;5058695;28;1918;-48
2021/08/05 04:25:54;;;;;;;;;;;;;;;;;;5059051;28;1587;-48
2021/08/05 04:28:23;;;;;;;;;;;;;;;;;;5058928;28;1619;-48
2021/08/05 04:30:48;;;;;;;;;;;;;;;;;;5059544;28;1287;-48
2021/08/05 04:33:13;;;;;;;;;;;;;;;;;;5057664;28;1582;-48
2021/08/05 04:35:38;;;;;;;;;;;;;;;;;;5059606;28;1271;-49
2021/08/05 04:38:06;;;;;;;;;;;;;;;;;;5058269;28;1053;-48
2021/08/05 04:40:31;;;;;;;;;;;;;;;;;;5059214;28;1376;-48
2021/08/05 04:42:56;;;;;;;;;;;;;;;;;;5057556;28;2014;-48
2021/08/05 04:45:21;;;;;;;;;;;;;;;;;;5058321;28;1244;-48
2021/08/05 04:47:53;;;;;;;;;;;;;;;;;;5059157;28;1548;-49
2021/08/05 04:50:18;;;;;;;;;;;;;;;;;;5059219;28;1098;-49
2021/08/05 04:52:43;;;;;;;;;;;;;;;;;;5058982;28;1292;-49
2021/08/05 04:55:08;;;;;;;;;;;;;;;;;;5058723;28;1835;-48
2021/08/05 04:57:34;;;;;;;;;;;;;;;;;;5060782;28;1610;-49
2021/08/05 04:59:59;;;;;;;;;;;;;;;;;;5059091;28;1638;-48
2021/08/05 05:02:24;;;;;;;;;;;;;;;;;;5056589;28;1933;-50
2021/08/05 05:04:49;;;;;;;;;;;;;;;;;;5056086;28;1640;-48
2021/08/05 05:07:14;;;;;;;;;;;;;;;;;;5058374;28;1148;-48
2021/08/05 05:09:39;;;;;;;;;;;;;;;;;;5059243;28;1509;-48
2021/08/05 05:12:05;;;;;;;;;;;;;;;;;;5057503;28;1561;-48
2021/08/05 05:14:30;;;;;;;;;;;;;;;;;;5061781;28;1199;-48
2021/08/05 05:16:56;;;;;;;;;;;;;;;;;;5061062;28;1271;-48
2021/08/05 05:19:23;;;;;;;;;;;;;;;;;;5062095;28;1112;-49
2021/08/05 05:21:48;;;;;;;;;;;;;;;;;;5057286;28;1578;-47
2021/08/05 05:24:13;;;;;;;;;;;;;;;;;;5057518;28;1906;-48
2021/08/05 05:26:38;;;;;;;;;;;;;;;;;;5059379;28;1567;-48
2021/08/05 05:29:04;;;;;;;;;;;;;;;;;;5058676;28;1358;-48
2021/08/05 05:31:29;;;;;;;;;;;;;;;;;;5058917;28;1280;-48
2021/08/05 05:33:54;;;;;;;;;;;;;;;;;;5060613;28;1112;-48
2021/08/05 05:36:19;;;;;;;;;;;;;;;;;;5059363;28;1646;-48
2021/08/05 05:38:44;;;;;;;;;;;;;;;;;;5059926;28;1132;-48
2021/08/05 05:41:09;;;;;;;;;;;;;;;;;;5059749;28;1584;-49
2021/08/05 05:43:35;;;;;;;;;;;;;;;;;;5060507;28;1918;-48
2021/08/05 05:46:00;;;;;;;;;;;;;;;;;;5055485;28;1614;-49
2021/08/05 05:48:25;;;;;;;;;;;;;;;;;;5055932;28;1493;-48
2021/08/05 05:50:50;;;;;;;;;;;;;;;;;;5057775;28;1319;-48
2021/08/05 05:53:16;;;;;;;;;;;;;;;;;;5057725;28;1207;-48
2021/08/05 05:55:41;;;;;;;;;;;;;;;;;;5058627;28;1515;-49
2021/08/05 05:58:06;;;;;;;;;;;;;;;;;;5057913;28;1365;-49
2021/08/05 06:00:32;;;;;;;;;;;;;;;;;;5057292;28;1109;-48
2021/08/05 06:02:57;;;;;;;;;;;;;;;;;;5057188;28;1914;-48
2021/08/05 06:05:22;;;;;;;;;;;;;;;;;;5056585;28;1625;-48
2021/08/05 06:07:48;;;;;;;;;;;;;;;;;;5056760;28;1464;-49
2021/08/05 06:10:13;;;;;;;;;;;;;;;;;;5056042;28;1840;-48
2021/08/05 06:12:39;;;;;;;;;;;;;;;;;;5057746;28;1477;-48
2021/08/05 06:15:04;;;;;;;;;;;;;;;;;;5057512;28;1499;-49
2021/08/05 06:17:29;;;;;;;;;;;;;;;;;;5058576;28;1062;-49
2021/08/05 06:19:54;;;;;;;;;;;;;;;;;;5056312;28;1141;-48
2021/08/05 06:22:20;;;;;;;;;;;;;;;;;;5056455;28;1993;-48
2021/08/05 06:24:45;;;;;;;;;;;;;;;;;;5057129;28;1626;-48
2021/08/05 06:27:10;;;;;;;;;;;;;;;;;;5056502;28;2016;-48
2021/08/05 06:29:35;;;;;;;;;;;;;;;;;;5058034;28;1706;-48
2021/08/05 06:32:00;;;;;;;;;;;;;;;;;;5057897;28;1370;-48
2021/08/05 06:34:26;;;;;;;;;;;;;;;;;;5057496;28;1536;-48
2021/08/05 06:36:51;;;;;;;;;;;;;;;;;;5058286;28;1266;-48
2021/08/05 06:39:17;;;;;;;;;;;;;;;;;;5039549;28;1671;-49
2021/08/05 06:41:42;;;;;;;;;;;;;;;;;;5057061;28;1602;-48
2021/08/05 06:44:07;;;;;;;;;;;;;;;;;;5058230;28;1972;-48
2021/08/05 06:46:33;;;;;;;;;;;;;;;;;;5058207;28;1121;-48
2021/08/05 06:48:58;;;;;;;;;;;;;;;;;;5057528;28;1723;-48
2021/08/05 06:51:23;;;;;;;;;;;;;;;;;;5058609;28;1276;-48
2021/08/05 06:53:48;;;;;;;;;;;;;;;;;;5057100;28;1191;-48
2021/08/05 06:56:13;;;;;;;;;;;;;;;;;;5056736;28;1588;-49
2021/08/05 06:58:38;;;;;;;;;;;;;;;;;;5055417;28;1736;-48
2021/08/05 07:01:04;;;;;;;;;;;;;;;;;;5057125;28;1579;-48
2021/08/05 07:03:29;;;;;;;;;;;;;;;;;;5055827;28;1922;-48
2021/08/05 07:05:54;;;;;;;;;;;;;;;;;;5055703;28;1601;-48
2021/08/05 07:08:19;;;;;;;;;;;;;;;;;;5057663;28;1118;-48
2021/08/05 07:10:44;;;;;;;;;;;;;;;;;;5056093;28;1551;-48
2021/08/05 07:13:11;;;;;;;;;;;;;;;;;;5090878;22;1598;-49
2021/08/05 07:15:36;;;;;;;;;;;;;;;;;;5090970;28;1463;-48
2021/08/05 07:18:01;;;;;;;;;;;;;;;;;;5099185;28;1247;-49
2021/08/05 07:20:26;;;;;;;;;;;;;;;;;;5100705;28;1448;-48
2021/08/05 07:22:51;;;;;;;;;;;;;;;;;;5095090;28;1981;-49
2021/08/05 07:25:17;;;;;;;;;;;;;;;;;;5090586;28;1575;-49
2021/08/05 07:27:42;;;;;;;;;;;;;;;;;;5088043;28;1669;-48
2021/08/05 07:30:08;;;;;;;;;;;;;;;;;;5093881;28;1325;-48
2021/08/05 07:32:33;;;;;;;;;;;;;;;;;;5091480;28;1393;-48
2021/08/05 07:34:58;;;;;;;;;;;;;;;;;;5089912;28;1554;-47
2021/08/05 07:37:24;;;;;;;;;;;;;;;;;;5094667;28;1100;-48
2021/08/05 07:39:49;;;;;;;;;;;;;;;;;;5092619;28;1100;-48
2021/08/05 07:42:15;;;;;;;;;;;;;;;;;;5086808;28;1906;-48
2021/08/05 07:44:41;;;;;;;;;;;;;;;;;;5092954;28;1187;-48
2021/08/05 07:47:06;;;;;;;;;;;;;;;;;;5093313;28;1245;-49
2021/08/05 07:49:31;;;;;;;;;;;;;;;;;;5092653;28;1866;-48
2021/08/05 07:51:56;;;;;;;;;;;;;;;;;;5088115;28;1381;-48
2021/08/05 07:54:21;;;;;;;;;;;;;;;;;;5086987;28;1178;-48
2021/08/05 07:56:47;;;;;;;;;;;;;;;;;;5082244;28;1674;-49
2021/08/05 07:59:12;;;;;;;;;;;;;;;;;;5082440;28;1136;-48
2021/08/05 08:01:37;;;;;;;;;;;;;;;;;;5090205;28;1421;-48
2021/08/05 08:04:02;;;;;;;;;;;;;;;;;;5091829;28;1910;-48
2021/08/05 08:06:27;;;;;;;;;;;;;;;;;;5090309;28;1605;-49
2021/08/05 08:08:53;;;;;;;;;;;;;;;;;;5091203;28;1171;-48
2021/08/05 08:11:22;;;;;;;;;;;;;;;;;;5090887;28;1562;-49
2021/08/05 08:13:48;;;;;;;;;;;;;;;;;;5090821;28;1258;-49
2021/08/05 08:16:13;;;;;;;;;;;;;;;;;;5093566;28;1403;-45
2021/08/05 08:18:38;;;;;;;;;;;;;;;;;;5091846;28;1541;-49
2021/08/05 08:21:04;;;;;;;;;;;;;;;;;;5082846;28;1459;-50
2021/08/05 08:23:29;;;;;;;;;;;;;;;;;;5091116;28;1910;-49
2021/08/05 08:25:54;;;;;;;;;;;;;;;;;;5086376;28;1602;-49
2021/08/05 08:28:19;;;;;;;;;;;;;;;;;;5095686;28;1159;-49
2021/08/05 08:30:44;;;;;;;;;;;;;;;;;;5096103;28;1242;-49
2021/08/05 08:33:10;;;;;;;;;;;;;;;;;;5087561;28;1287;-49
2021/08/05 08:35:35;;;;;;;;;;;;;;;;;;5088911;28;1530;-49
2021/08/05 08:38:00;;;;;;;;;;;;;;;;;;5093550;28;1104;-49
2021/08/05 08:40:25;;;;;;;;;;;;;;;;;;5092299;28;1136;-50
2021/08/05 08:42:51;;;;;;;;;;;;;;;;;;5074635;28;1902;-54
2021/08/05 08:45:16;;;;;;;;;;;;;;;;;;5090761;28;1152;-53
2021/08/05 08:47:41;;;;;;;;;;;;;;;;;;5093350;28;1136;-55
2021/08/05 08:50:07;;;;;;;;;;;;;;;;;;5073818;28;1582;-55
2021/08/05 08:52:34;;;;;;;;;;;;;;;;;;5094086;28;1283;-53
2021/08/05 08:54:59;;;;;;;;;;;;;;;;;;5072418;28;1136;-56
2021/08/05 08:57:29;;;;;;;;;;;;;;;;;;5088324;28;1643;-53
2021/08/05 08:59:54;;;;;;;;;;;;;;;;;;5092390;28;977;-55
2021/08/05 09:02:19;;;;;;;;;;;;;;;;;;5074173;28;1975;-54
2021/08/05 09:04:45;;;;;;;;;;;;;;;;;;5086925;28;1588;-55
2021/08/05 09:07:10;;;;;;;;;;;;;;;;;;5093830;28;1222;-54
2021/08/05 09:09:35;;;;;;;;;;;;;;;;;;5087956;28;1679;-55
2021/08/05 09:12:00;;;;;;;;;;;;;;;;;;5090774;28;1486;-53
2021/08/05 09:14:45;;;;;;;;;;;;;;;;;;5088342;28;1426;-54
2021/08/05 09:17:29;;;;;;;;;;;;;;;;;;5090316;28;1227;-52
2021/08/05 09:19:55;;;;;;;;;;;;;;;;;;5091617;28;1585;-54
2021/08/05 09:22:32;;;;;;;;;;;;;;;;;;5091409;28;1965;-53
2021/08/05 09:24:57;;;;;;;;;;;;;;;;;;5091096;28;1314;-53
2021/08/05 09:27:32;;;;;;;;;;;;;;;;;;5090469;28;1572;-54
2021/08/05 09:29:58;;;;;;;;;;;;;;;;;;5090356;28;1050;-54
2021/08/05 09:32:26;;;;;;;;;;;;;;;;;;5094348;28;1370;-55
2021/08/05 09:34:51;;;;;;;;;;;;;;;;;;5086367;28;1561;-54
2021/08/05 09:37:17;;;;;;;;;;;;;;;;;;5074007;28;1399;-53
2021/08/05 09:39:45;;;;;;;;;;;;;;;;;;5095063;28;1092;-54
2021/08/05 09:42:11;;;;;;;;;;;;;;;;;;5088389;28;1597;-53
2021/08/05 09:44:36;;;;;;;;;;;;;;;;;;5092586;28;1909;-55
2021/08/05 09:47:05;;;;;;;;;;;;;;;;;;5090563;28;1124;-55
2021/08/05 09:49:30;;;;;;;;;;;;;;;;;;5092272;28;1132;-51
2021/08/05 09:51:58;;;;;;;;;;;;;;;;;;5089666;28;1695;-52
2021/08/05 09:54:35;;;;;;;;;;;;;;;;;;5074838;28;1323;-52
2021/08/05 09:57:00;;;;;;;;;;;;;;;;;;5076126;28;1613;-53
2021/08/05 09:59:25;;;;;;;;;;;;;;;;;;5072988;28;1199;-54
2021/08/05 10:01:54;;;;;;;;;;;;;;;;;;5089774;28;1397;-54
2021/08/05 10:04:32;;;;;;;;;;;;;;;;;;5090888;28;1910;-56
2021/08/05 10:06:59;;;;;;;;;;;;;;;;;;5085434;28;1125;-54
2021/08/05 10:09:24;;;;;;;;;;;;;;;;;;5090548;28;1188;-55
2021/08/05 10:11:49;;;;;;;;;;;;;;;;;;5088130;28;1609;-55
2021/08/05 10:14:23;;;;;;;;;;;;;;;;;;5064673;28;1587;-54
2021/08/05 10:16:49;;;;;;;;;;;;;;;;;;5096206;28;1716;-56
2021/08/05 10:19:15;;;;;;;;;;;;;;;;;;5078250;28;1195;-54
2021/08/05 10:21:40;;;;;;;;;;;;;;;;;;5089558;28;1602;-55
2021/08/05 10:24:06;;;;;;;;;;;;;;;;;;5095456;28;1914;-56
2021/08/05 10:26:31;;;;;;;;;;;;;;;;;;5093422;28;1589;-55
2021/08/05 10:28:56;;;;;;;;;;;;;;;;;;5070285;28;1724;-54
2021/08/05 10:31:21;;;;;;;;;;;;;;;;;;5073322;28;1014;-55
2021/08/05 10:33:46;;;;;;;;;;;;;;;;;;5093108;28;1401;-55
2021/08/05 10:36:12;;;;;;;;;;;;;;;;;;5074932;28;1151;-55
2021/08/05 10:38:37;;;;;;;;;;;;;;;;;;5085738;28;1597;-55
2021/08/05 10:41:02;;;;;;;;;;;;;;;;;;5088646;28;1587;-53
2021/08/05 10:43:28;;;;;;;;;;;;;;;;;;5070367;28;1984;-56
2021/08/05 10:45:53;;;;;;;;;;;;;;;;;;5073038;28;986;-55
2021/08/05 10:48:18;;;;;;;;;;;;;;;;;;5090635;28;1279;-55
2021/08/05 10:50:44;;;;;;;;;;;;;;;;;;5094112;28;1637;-55
2021/08/05 10:53:13;;;;;;;;;;;;;;;;;;5066374;28;1516;-54
2021/08/05 10:55:39;;;;;;;;;;;;;;;;;;5090665;28;1693;-54
2021/08/05 10:58:10;;;;;;;;;;;;;;;;;;5092765;28;1399;-55
2021/08/05 11:00:52;;;;;;;;;;;;;;;;;;5095056;28;1549;-53
2021/08/05 11:03:33;;;;;;;;;;;;;;;;;;5092541;28;1959;-54
2021/08/05 11:05:58;;;;;;;;;;;;;;;;;;5098615;28;1064;-55
2021/08/05 11:08:24;;;;;;;;;;;;;;;;;;5097524;28;1673;-56
2021/08/05 11:10:49;;;;;;;;;;;;;;;;;;5096998;28;1533;-55
2021/08/05 11:13:21;;;;;;;;;;;;;;;;;;5099596;28;1267;-54
2021/08/05 11:15:46;;;;;;;;;;;;;;;;;;5090355;28;1525;-54
2021/08/05 11:18:18;;;;;;;;;;;;;;;;;;5079687;28;1127;-55
2021/08/05 11:20:55;;;;;;;;;;;;;;;;;;5098712;28;1209;-55
2021/08/05 11:23:36;;;;;;;;;;;;;;;;;;5098650;28;1909;-54
2021/08/05 11:26:02;;;;;;;;;;;;;;;;;;5088364;28;1648;-55
2021/08/05 11:28:31;;;;;;;;;;;;;;;;;;5098304;28;1176;-55
2021/08/05 11:30:59;;;;;;;;;;;;;;;;;;5096260;28;1354;-55
2021/08/05 11:33:37;;;;;;;;;;;;;;;;;;5098798;28;1386;-53
2021/08/05 11:38:58;;;;;;;;;;;;;;;;;;5096231;28;1487;-55
2021/08/05 11:41:42;;;;;;;;;;;;;;;;;;5096309;28;1565;-54
2021/08/05 11:44:18;;;;;;;;;;;;;;;;;;5091930;28;1906;-56
2021/08/05 11:46:44;;;;;;;;;;;;;;;;;;5093715;28;1188;-56
2021/08/05 11:49:29;;;;;;;;;;;;;;;;;;5078357;28;1340;-53
2021/08/05 11:51:54;;;;;;;;;;;;;;;;;;5098324;28;1700;-56
2021/08/05 11:54:19;;;;;;;;;;;;;;;;;;5094326;28;1271;-55
2021/08/05 11:56:57;;;;;;;;;;;;;;;;;;5073915;28;1650;-54
2021/08/05 11:59:38;;;;;;;;;;;;;;;;;;5091457;28;1674;-53
2021/08/05 12:02:03;;;;;;;;;;;;;;;;;;5089031;28;1534;-50
2021/08/05 12:04:28;;;;;;;;;;;;;;;;;;5098113;28;1969;-51
2021/08/05 12:07:13;;;;;;;;;;;;;;;;;;5096704;28;1174;-50
2021/08/05 12:09:39;;;;;;;;;;;;;;;;;;5095989;28;1409;-51
2021/08/05 12:12:04;;;;;;;;;;;;;;;;;;5097322;28;1605;-51
2021/08/05 12:14:29;;;;;;;;;;;;;;;;;;5098492;28;1338;-51
2021/08/05 12:16:55;;;;;;;;;;;;;;;;;;5095387;28;1168;-51
2021/08/05 12:19:20;;;;;;;;;;;;;;;;;;5097101;28;1115;-51
2021/08/05 12:21:46;;;;;;;;;;;;;;;;;;5093659;28;1525;-50
2021/08/05 12:24:11;;;;;;;;;;;;;;;;;;5098941;28;1909;-50
2021/08/05 12:26:37;;;;;;;;;;;;;;;;;;5090773;28;1546;-51
2021/08/05 12:29:07;;;;;;;;;;;;;;;;;;5092475;28;1547;-50
2021/08/05 12:31:33;;;;;;;;;;;;;;;;;;5095035;28;1335;-51
2021/08/05 12:33:58;;;;;;;;;;;;;;;;;;5096530;28;1120;-50
2021/08/05 12:36:24;;;;;;;;;;;;;;;;;;5092464;28;1179;-50
2021/08/05 12:38:53;;;;;;;;;;;;;;;;;;5092372;28;1625;-51
2021/08/05 12:41:25;;;;;;;;;;;;;;;;;;5094511;28;1644;-50
2021/08/05 12:43:51;;;;;;;;;;;;;;;;;;5074116;28;1975;-50
2021/08/05 12:46:16;;;;;;;;;;;;;;;;;;5078464;28;935;-50
2021/08/05 12:48:41;;;;;;;;;;;;;;;;;;5076045;28;1196;-51
2021/08/05 12:51:06;;;;;;;;;;;;;;;;;;5098205;28;1116;-51
2021/08/05 12:53:32;;;;;;;;;;;;;;;;;;5091744;28;1596;-51
2021/08/05 12:56:03;;;;;;;;;;;;;;;;;;5097797;28;1510;-50
2021/08/05 12:58:29;;;;;;;;;;;;;;;;;;5094081;28;1218;-50
2021/08/05 13:01:14;;;;;;;;;;;;;;;;;;5095475;28;1102;-51
2021/08/05 13:03:40;;;;;;;;;;;;;;;;;;5077002;28;1913;-50
2021/08/05 13:06:06;;;;;;;;;;;;;;;;;;5081722;28;1557;-50
2021/08/05 13:08:34;;;;;;;;;;;;;;;;;;5097155;28;1073;-51
2021/08/05 13:11:00;;;;;;;;;;;;;;;;;;5094257;28;1512;-51
2021/08/05 13:13:40;;;;;;;;;;;;;;;;;;5095275;28;1223;-51
2021/08/05 13:16:15;;;;;;;;;;;;;;;;;;5095094;28;1038;-50
2021/08/05 13:18:40;;;;;;;;;;;;;;;;;;5078458;28;1161;-51
2021/08/05 13:21:09;;;;;;;;;;;;;;;;;;5079454;28;1184;-50
2021/08/05 13:23:34;;;;;;;;;;;;;;;;;;5094270;28;1914;-50
2021/08/05 13:25:59;;;;;;;;;;;;;;;;;;5092106;28;1652;-51
2021/08/05 13:28:27;;;;;;;;;;;;;;;;;;5092951;28;1525;-50
2021/08/05 13:31:05;;;;;;;;;;;;;;;;;;5096289;28;1235;-50
2021/08/05 13:33:30;;;;;;;;;;;;;;;;;;5095711;28;1240;-51
2021/08/05 13:35:56;;;;;;;;;;;;;;;;;;5089711;28;1651;-51
2021/08/05 13:38:21;;;;;;;;;;;;;;;;;;5096176;28;1131;-50
2021/08/05 13:40:46;;;;;;;;;;;;;;;;;;5091766;28;1613;-51
2021/08/05 13:43:12;;;;;;;;;;;;;;;;;;5095041;28;1960;-50
2021/08/05 13:45:38;;;;;;;;;;;;;;;;;;5092135;28;1486;-50
2021/08/05 13:48:04;;;;;;;;;;;;;;;;;;5073283;28;1270;-50
2021/08/05 13:50:30;;;;;;;;;;;;;;;;;;5092333;28;998;-51
2021/08/05 13:52:57;;;;;;;;;;;;;;;;;;5094157;28;1585;-49
2021/08/05 13:55:23;;;;;;;;;;;;;;;;;;5094153;28;945;-50
2021/08/05 13:57:48;;;;;;;;;;;;;;;;;;5088689;28;1573;-50
2021/08/05 14:00:13;;;;;;;;;;;;;;;;;;5094734;28;1125;-51
2021/08/05 14:02:39;;;;;;;;;;;;;;;;;;5096919;28;1913;-51
2021/08/05 14:05:04;;;;;;;;;;;;;;;;;;5087546;28;1929;-50
2021/08/05 14:07:30;;;;;;;;;;;;;;;;;;5087319;28;1606;-50
2021/08/05 14:09:56;;;;;;;;;;;;;;;;;;5079781;28;1578;-51
2021/08/05 14:12:21;;;;;;;;;;;;;;;;;;5092232;28;1543;-51
2021/08/05 14:14:46;;;;;;;;;;;;;;;;;;5093608;28;1364;-51
2021/08/05 14:17:11;;;;;;;;;;;;;;;;;;5097891;28;1088;-51
2021/08/05 14:19:36;;;;;;;;;;;;;;;;;;5091151;28;1573;-51
2021/08/05 14:22:01;;;;;;;;;;;;;;;;;;5091125;28;1331;-51
2021/08/05 14:24:27;;;;;;;;;;;;;;;;;;5096981;28;1906;-51
2021/08/05 14:26:56;;;;;;;;;;;;;;;;;;5095128;28;1593;-50
2021/08/05 14:29:21;;;;;;;;;;;;;;;;;;5099942;28;1156;-51
2021/08/05 14:31:46;;;;;;;;;;;;;;;;;;5099612;28;1327;-51
2021/08/05 14:34:11;;;;;;;;;;;;;;;;;;5097185;28;1564;-51
2021/08/05 14:36:37;;;;;;;;;;;;;;;;;;5102431;28;1175;-51
2021/08/05 14:39:02;;;;;;;;;;;;;;;;;;5098895;28;1112;-51
2021/08/05 14:41:30;;;;;;;;;;;;;;;;;;5099072;28;1676;-50
2021/08/05 14:43:56;;;;;;;;;;;;;;;;;;5096752;28;1902;-51
2021/08/05 14:46:21;;;;;;;;;;;;;;;;;;5098712;28;1241;-51
2021/08/05 14:48:46;;;;;;;;;;;;;;;;;;5097965;28;1261;-51
2021/08/05 14:51:11;;;;;;;;;;;;;;;;;;5094613;28;1755;-51
2021/08/05 14:53:37;;;;;;;;;;;;;;;;;;5097535;28;1330;-51
2021/08/05 14:56:02;;;;;;;;;;;;;;;;;;5096111;28;1573;-50
2021/08/05 14:58:27;;;;;;;;;;;;;;;;;;5098617;28;1116;-51
2021/08/05 15:00:52;;;;;;;;;;;;;;;;;;5100029;28;1143;-51
2021/08/05 15:03:17;;;;;;;;;;;;;;;;;;5090898;28;1968;-51
2021/08/05 15:05:43;;;;;;;;;;;;;;;;;;5097061;28;1101;-50
2021/08/05 15:08:08;;;;;;;;;;;;;;;;;;5099857;28;1297;-51
2021/08/05 15:10:33;;;;;;;;;;;;;;;;;;5098978;28;1578;-51
2021/08/05 15:12:58;;;;;;;;;;;;;;;;;;5096597;28;1856;-51
2021/08/05 15:15:23;;;;;;;;;;;;;;;;;;5082790;28;1581;-51
2021/08/05 15:17:49;;;;;;;;;;;;;;;;;;5100663;28;1222;-51
2021/08/05 15:20:14;;;;;;;;;;;;;;;;;;5098358;28;1139;-50
2021/08/05 15:22:39;;;;;;;;;;;;;;;;;;5094693;28;1910;-51
2021/08/05 15:25:04;;;;;;;;;;;;;;;;;;5098287;28;1234;-51
2021/08/05 15:27:29;;;;;;;;;;;;;;;;;;5097643;28;1571;-51
2021/08/05 15:29:55;;;;;;;;;;;;;;;;;;5094091;28;1513;-51
2021/08/05 15:32:20;;;;;;;;;;;;;;;;;;5095948;28;1358;-51
2021/08/05 15:34:45;;;;;;;;;;;;;;;;;;5095474;28;1191;-51
2021/08/05 15:37:10;;;;;;;;;;;;;;;;;;5095633;28;1503;-50
2021/08/05 15:39:35;;;;;;;;;;;;;;;;;;5094243;28;1388;-50
2021/08/05 15:42:00;;;;;;;;;;;;;;;;;;5096065;28;1578;-51
2021/08/05 15:44:29;;;;;;;;;;;;;;;;;;5097161;28;1922;-51
2021/08/05 15:46:54;;;;;;;;;;;;;;;;;;5097623;28;1341;-50
2021/08/05 15:49:19;;;;;;;;;;;;;;;;;;5099888;28;1124;-50
2021/08/05 15:51:44;;;;;;;;;;;;;;;;;;5097944;28;1600;-51
2021/08/05 15:54:13;;;;;;;;;;;;;;;;;;5094220;28;1410;-51
2021/08/05 15:56:39;;;;;;;;;;;;;;;;;;5093793;28;1598;-51
2021/08/05 15:59:04;;;;;;;;;;;;;;;;;;5097580;28;1359;-51
2021/08/05 16:01:29;;;;;;;;;;;;;;;;;;5100428;28;1378;-51
2021/08/05 16:03:55;;;;;;;;;;;;;;;;;;5091078;28;1905;-49
2021/08/05 16:06:20;;;;;;;;;;;;;;;;;;5093255;28;1586;-50
2021/08/05 16:08:45;;;;;;;;;;;;;;;;;;5097573;28;1328;-50
2021/08/05 16:11:10;;;;;;;;;;;;;;;;;;5097104;28;1550;-51
2021/08/05 16:13:35;;;;;;;;;;;;;;;;;;5093898;28;1369;-51
2021/08/05 16:16:01;;;;;;;;;;;;;;;;;;5090092;28;1655;-51
2021/08/05 16:18:27;;;;;;;;;;;;;;;;;;5080679;28;1451;-51
2021/08/05 16:20:52;;;;;;;;;;;;;;;;;;5098251;28;1225;-50
2021/08/05 16:23:17;;;;;;;;;;;;;;;;;;5096710;28;1933;-51
2021/08/05 16:25:42;;;;;;;;;;;;;;;;;;5095711;28;1553;-50
2021/08/05 16:28:07;;;;;;;;;;;;;;;;;;5089110;28;1506;-50
2021/08/05 16:30:33;;;;;;;;;;;;;;;;;;5095685;28;1518;-51
2021/08/05 16:32:58;;;;;;;;;;;;;;;;;;5096465;28;1299;-50
2021/08/05 16:35:23;;;;;;;;;;;;;;;;;;5097443;28;1144;-50
2021/08/05 16:37:48;;;;;;;;;;;;;;;;;;5096822;28;2188;-51
2021/08/05 16:40:13;;;;;;;;;;;;;;;;;;5096901;28;1291;-51
2021/08/05 16:42:38;;;;;;;;;;;;;;;;;;5092056;28;1973;-51
2021/08/05 16:45:04;;;;;;;;;;;;;;;;;;5094576;28;1184;-50
2021/08/05 16:47:29;;;;;;;;;;;;;;;;;;5095320;28;1409;-50
2021/08/05 16:49:54;;;;;;;;;;;;;;;;;;5095311;28;1719;-51
2021/08/05 16:52:20;;;;;;;;;;;;;;;;;;5095549;28;1282;-50
2021/08/05 16:54:45;;;;;;;;;;;;;;;;;;5096015;28;1359;-49
2021/08/05 16:57:11;;;;;;;;;;;;;;;;;;5093169;28;1507;-51
2021/08/05 16:59:37;;;;;;;;;;;;;;;;;;5092596;28;1407;-50